createdAt,value
2023-09-23T00:00:28.995Z,3.87
2023-09-23T00:05:54.977Z,3.47
2023-09-23T00:11:17.333Z,3.30
2023-09-23T00:16:39.886Z,4.90
2023-09-23T00:22:03.742Z,4.03
2023-09-23T00:27:27.795Z,4.30
2023-09-23T00:32:50.251Z,4.15
2023-09-23T00:38:13.658Z,4.37
2023-09-23T00:43:36.242Z,3.95
2023-09-23T00:49:00.712Z,3.85
2023-09-23T00:54:23.108Z,3.58
2023-09-23T00:59:45.787Z,3.17
2023-09-23T01:05:09.731Z,5.00
2023-09-23T01:10:32.770Z,4.65
2023-09-23T01:15:55.145Z,5.28
2023-09-23T01:21:17.495Z,4.25
2023-09-23T01:26:40.587Z,6.42
2023-09-23T01:32:16.299Z,6.20
2023-09-23T01:37:39.412Z,6.75
2023-09-23T01:43:01.733Z,10.25
2023-09-23T01:48:24.639Z,12.00
2023-09-23T01:53:47.090Z,14.03
2023-09-23T01:59:11.152Z,15.98
2023-09-23T02:04:35.384Z,20.17
2023-09-23T02:09:57.840Z,15.63
2023-09-23T02:15:20.365Z,17.98
2023-09-23T02:20:44.544Z,19.32
2023-09-23T02:26:08.295Z,18.07
2023-09-23T02:31:31.379Z,20.85
2023-09-23T02:36:54.452Z,14.53
2023-09-23T02:42:16.869Z,12.98
2023-09-23T02:47:39.450Z,11.80
2023-09-23T02:53:03.173Z,11.43
2023-09-23T02:58:25.867Z,12.82
2023-09-23T03:03:49.248Z,11.38
2023-09-23T03:09:12.526Z,14.43
2023-09-23T03:14:41.116Z,14.45
2023-09-23T03:20:08.065Z,12.98
2023-09-23T03:25:31.730Z,12.73
2023-09-23T03:30:56.075Z,11.70
2023-09-23T03:36:22.001Z,14.50
2023-09-23T03:41:48.059Z,12.40
2023-09-23T03:47:10.563Z,12.53
2023-09-23T03:52:35.179Z,11.80
2023-09-23T03:57:59.086Z,12.60
2023-09-23T04:03:21.699Z,13.62
2023-09-23T04:08:45.716Z,11.10
2023-09-23T04:14:08.625Z,15.65
2023-09-23T04:19:31.545Z,13.32
2023-09-23T04:24:55.101Z,14.45
2023-09-23T04:30:18.859Z,14.23
2023-09-23T04:35:41.894Z,11.45
2023-09-23T04:41:05.236Z,11.90
2023-09-23T04:46:28.869Z,12.58
2023-09-23T04:51:52.200Z,10.68
2023-09-23T04:57:16.098Z,12.53
2023-09-23T05:02:43.213Z,9.68
2023-09-23T05:08:06.806Z,10.20
2023-09-23T05:13:30.720Z,11.48
2023-09-23T05:18:54.973Z,10.00
2023-09-23T05:24:17.800Z,10.75
2023-09-23T05:29:40.101Z,8.55
2023-09-23T05:35:03.395Z,12.25
2023-09-23T05:40:27.880Z,9.25
2023-09-23T05:45:50.502Z,10.70
2023-09-23T05:51:17.587Z,15.72
2023-09-23T05:56:40.242Z,8.83
2023-09-23T06:02:04.694Z,8.30
2023-09-23T06:07:28.350Z,9.18
2023-09-23T06:12:51.278Z,11.50
2023-09-23T06:18:14.221Z,8.83
2023-09-23T06:23:37.673Z,12.73
2023-09-23T06:29:00.380Z,10.90
2023-09-23T06:34:23.020Z,10.03
2023-09-23T06:39:45.711Z,8.35
2023-09-23T06:45:09.790Z,9.43
2023-09-23T06:50:32.950Z,8.40
2023-09-23T06:55:55.901Z,13.78
2023-09-23T07:01:18.954Z,11.88
2023-09-23T07:06:44.270Z,10.00
2023-09-23T07:12:10.374Z,9.55
2023-09-23T07:17:34.619Z,10.45
2023-09-23T07:22:58.103Z,9.95
2023-09-23T07:28:20.824Z,9.85
2023-09-23T07:33:43.294Z,7.40
2023-09-23T07:39:05.840Z,7.55
2023-09-23T07:44:28.772Z,11.25
2023-09-23T07:49:52.111Z,8.68
2023-09-23T07:55:15.374Z,6.15
2023-09-23T08:00:38.118Z,6.58
2023-09-23T08:06:00.968Z,6.35
2023-09-23T08:11:23.514Z,5.25
2023-09-23T08:16:47.077Z,8.03
2023-09-23T08:22:09.460Z,7.30
2023-09-23T08:27:32.580Z,6.97
2023-09-23T08:32:56.624Z,4.10
2023-09-23T08:38:19.414Z,4.60
2023-09-23T08:43:43.760Z,6.47
2023-09-23T08:49:08.913Z,8.48
2023-09-23T08:54:33.669Z,7.00
2023-09-23T08:59:58.218Z,6.70
2023-09-23T09:05:22.353Z,6.90
2023-09-23T09:10:45.484Z,6.62
2023-09-23T09:16:09.763Z,8.50
2023-09-23T09:21:35.815Z,8.40
2023-09-23T09:26:58.890Z,6.55
2023-09-23T09:32:23.050Z,5.95
2023-09-23T09:37:55.286Z,5.62
2023-09-23T09:43:16.159Z,6.03
2023-09-23T09:48:39.452Z,5.17
2023-09-23T09:54:04.507Z,4.30
2023-09-23T09:59:44.929Z,5.65
2023-09-23T10:05:11.001Z,4.00
2023-09-23T10:10:37.482Z,3.50
2023-09-23T10:16:04.720Z,4.00
2023-09-23T10:21:39.909Z,5.78
2023-09-23T10:27:02.608Z,6.67
2023-09-23T10:32:32.446Z,3.47
2023-09-23T10:43:13.673Z,4.87
2023-09-23T10:48:37.742Z,4.12
2023-09-23T10:54:02.061Z,3.47
2023-09-23T10:59:24.727Z,2.58
2023-09-23T11:04:50.018Z,3.92
2023-09-23T11:10:14.458Z,3.58
2023-09-23T11:15:37.623Z,3.98
2023-09-23T11:21:01.412Z,1.72
2023-09-23T11:26:25.916Z,2.98
2023-09-23T11:31:49.315Z,2.10
2023-09-23T11:37:12.095Z,5.40
2023-09-23T11:42:34.981Z,4.60
2023-09-23T11:47:58.528Z,1.92
2023-09-23T11:53:21.027Z,3.98
2023-09-23T11:58:48.922Z,3.25
2023-09-23T12:04:07.486Z,6.17
2023-09-23T12:09:29.966Z,4.85
2023-09-23T12:14:53.038Z,2.62
2023-09-23T12:20:16.483Z,4.67
2023-09-23T12:25:41.037Z,2.77
2023-09-23T12:31:03.434Z,2.87
2023-09-23T12:36:26.439Z,2.87
2023-09-23T12:41:49.027Z,2.92
2023-09-23T12:47:11.491Z,3.58
2023-09-23T12:52:34.432Z,4.80
2023-09-23T12:57:57.213Z,4.05
2023-09-23T13:03:19.623Z,3.33
2023-09-23T13:08:42.154Z,3.22
2023-09-23T13:14:07.142Z,3.45
2023-09-23T13:19:58.772Z,5.77
2023-09-23T13:25:21.788Z,6.25
2023-09-23T13:30:44.312Z,5.57
2023-09-23T13:36:07.300Z,4.07
2023-09-23T13:41:30.116Z,4.42
2023-09-23T13:46:53.473Z,5.70
2023-09-23T13:52:16.061Z,2.47
2023-09-23T13:57:38.516Z,3.25
2023-09-23T14:03:01.245Z,2.90
2023-09-23T14:08:23.901Z,4.57
2023-09-23T14:13:46.861Z,2.37
2023-09-23T14:19:09.588Z,2.15
2023-09-23T14:24:32.006Z,3.08
2023-09-23T14:29:55.066Z,1.90
2023-09-23T14:35:17.670Z,5.15
2023-09-23T14:40:40.111Z,2.95
2023-09-23T14:46:02.894Z,5.03
2023-09-23T14:52:02.533Z,2.65
2023-09-23T14:57:28.751Z,1.77
2023-09-23T15:02:51.557Z,4.78
2023-09-23T15:08:14.505Z,4.08
2023-09-23T15:13:37.763Z,1.75
2023-09-23T15:19:00.534Z,3.02
2023-09-23T15:24:23.666Z,2.65
2023-09-23T15:29:47.785Z,2.33
2023-09-23T15:35:12.894Z,2.22
2023-09-23T15:40:37.099Z,2.35
2023-09-23T15:46:02.672Z,3.08
2023-09-23T15:51:33.075Z,2.33
2023-09-23T15:56:58.573Z,1.82
2023-09-23T16:02:21.938Z,4.08
2023-09-23T16:13:26.808Z,3.00
2023-09-23T16:18:49.925Z,1.75
2023-09-23T16:24:12.798Z,2.37
2023-09-23T16:29:35.822Z,3.37
2023-09-23T16:34:58.982Z,2.10
2023-09-23T16:40:23.814Z,4.60
2023-09-23T16:45:46.947Z,3.83
2023-09-23T16:51:10.381Z,2.83
2023-09-23T16:56:33.361Z,4.75
2023-09-23T17:01:56.514Z,2.42
2023-09-23T17:11:51.062Z,3.07
2023-09-23T17:17:13.652Z,1.82
2023-09-23T17:22:36.788Z,2.97
2023-09-23T17:27:59.868Z,2.37
2023-09-23T17:33:22.527Z,3.10
2023-09-23T17:38:46.480Z,3.70
2023-09-23T17:44:10.989Z,2.70
2023-09-23T17:49:33.435Z,3.07
2023-09-23T17:54:58.025Z,3.65
2023-09-23T18:00:21.527Z,2.67
2023-09-23T18:05:46.270Z,2.35
2023-09-23T18:11:15.042Z,3.25
2023-09-23T18:16:38.319Z,2.10
2023-09-23T18:22:01.579Z,3.70
2023-09-23T18:27:25.183Z,3.98
2023-09-23T18:32:49.610Z,1.70
2023-09-23T18:38:13.800Z,2.98
2023-09-23T18:43:37.369Z,2.98
2023-09-23T18:49:00.184Z,3.50
2023-09-23T18:54:23.669Z,3.37
2023-09-23T18:59:47.176Z,3.12
2023-09-23T19:05:10.673Z,2.85
2023-09-23T19:10:33.944Z,3.22
2023-09-23T19:16:02.612Z,4.15
2023-09-23T19:21:25.646Z,4.50
2023-09-23T19:26:57.426Z,3.35
2023-09-23T19:32:20.253Z,3.15
2023-09-23T19:37:44.617Z,3.77
2023-09-23T19:43:07.636Z,3.35
2023-09-23T19:48:30.978Z,5.17
2023-09-23T19:53:54.525Z,4.25
2023-09-23T19:59:17.308Z,4.42
2023-09-23T20:04:42.485Z,4.25
2023-09-23T20:10:10.050Z,3.08
2023-09-23T20:15:33.041Z,2.70
2023-09-23T20:20:56.583Z,4.45
2023-09-23T20:26:19.357Z,2.33
2023-09-23T20:31:43.993Z,3.08
2023-09-23T20:37:08.593Z,7.17
2023-09-23T20:42:31.241Z,3.20
2023-09-23T20:47:54.779Z,6.65
2023-09-23T20:53:18.231Z,4.05
2023-09-23T20:58:41.061Z,3.25
2023-09-23T21:04:04.161Z,6.12
2023-09-23T21:09:26.632Z,5.20
2023-09-23T21:14:49.126Z,3.77
2023-09-23T21:20:13.475Z,3.45
2023-09-23T21:25:38.839Z,3.83
2023-09-23T21:31:01.139Z,3.52
2023-09-23T21:36:23.590Z,3.33
2023-09-23T21:41:46.439Z,3.75
2023-09-23T21:47:10.210Z,6.87
2023-09-23T21:52:32.764Z,4.47
2023-09-23T21:57:55.215Z,6.60
2023-09-23T22:03:18.603Z,5.35
2023-09-23T22:08:42.570Z,5.05
2023-09-23T22:14:06.801Z,7.35
2023-09-23T22:19:29.467Z,7.42
2023-09-23T22:24:51.820Z,6.37
2023-09-23T22:30:16.293Z,6.75
2023-09-23T22:35:40.179Z,7.25
2023-09-23T22:41:03.113Z,9.08
2023-09-23T22:46:25.566Z,7.87
2023-09-23T22:51:47.948Z,8.68
2023-09-23T22:57:12.146Z,7.92
2023-09-23T23:02:34.573Z,7.60
2023-09-23T23:08:05.041Z,11.48
2023-09-23T23:13:27.333Z,8.40
2023-09-23T23:18:50.593Z,6.92
2023-09-23T23:24:13.933Z,8.18
2023-09-23T23:29:36.331Z,7.12
2023-09-23T23:35:00.003Z,8.00
2023-09-23T23:40:24.729Z,8.90
2023-09-23T23:45:47.275Z,10.95
2023-09-23T23:51:21.259Z,11.12
2023-09-23T23:56:44.142Z,8.48
